sensor_id;sensor_type;location;lat;lon;timestamp;temperature;humidity
52517;DHT22;59374;53.210;5.726;2022-08-19T00:00:17;15.50;99.90
52517;DHT22;59374;53.210;5.726;2022-08-19T00:02:43;15.50;99.90
52517;DHT22;59374;53.210;5.726;2022-08-19T00:05:09;15.40;99.90
52517;DHT22;59374;53.210;5.726;2022-08-19T00:07:35;15.40;99.90
52517;DHT22;59374;53.210;5.726;2022-08-19T00:10:00;15.40;99.90
52517;DHT22;59374;53.210;5.726;2022-08-19T00:12:26;15.40;99.90
52517;DHT22;59374;53.210;5.726;2022-08-19T00:14:52;15.40;99.90
52517;DHT22;59374;53.210;5.726;2022-08-19T00:17:19;15.30;99.90
52517;DHT22;59374;53.210;5.726;2022-08-19T00:19:45;15.30;99.90
52517;DHT22;59374;53.210;5.726;2022-08-19T00:22:13;15.30;99.90
52517;DHT22;59374;53.210;5.726;2022-08-19T00:24:39;15.30;99.90
52517;DHT22;59374;53.210;5.726;2022-08-19T00:27:06;15.30;99.90
52517;DHT22;59374;53.210;5.726;2022-08-19T00:29:31;15.30;99.90
52517;DHT22;59374;53.210;5.726;2022-08-19T00:31:57;15.30;99.90
52517;DHT22;59374;53.210;5.726;2022-08-19T00:34:25;15.20;99.90
52517;DHT22;59374;53.210;5.726;2022-08-19T00:36:53;15.20;99.90
52517;DHT22;59374;53.210;5.726;2022-08-19T00:39:18;15.20;99.90
52517;DHT22;59374;53.210;5.726;2022-08-19T00:41:44;15.20;99.90
52517;DHT22;59374;53.210;5.726;2022-08-19T00:44:14;15.20;99.90
52517;DHT22;59374;53.210;5.726;2022-08-19T00:46:41;15.10;99.90
52517;DHT22;59374;53.210;5.726;2022-08-19T00:49:27;15.10;99.90
52517;DHT22;59374;53.210;5.726;2022-08-19T00:52:28;15.10;99.90
52517;DHT22;59374;53.210;5.726;2022-08-19T00:54:46;15.10;99.90
52517;DHT22;59374;53.210;5.726;2022-08-19T00:57:14;15.10;99.90
52517;DHT22;59374;53.210;5.726;2022-08-19T00:59:41;15.10;99.90
52517;DHT22;59374;53.210;5.726;2022-08-19T01:02:08;15.00;99.90
52517;DHT22;59374;53.210;5.726;2022-08-19T01:04:34;15.00;99.90
52517;DHT22;59374;53.210;5.726;2022-08-19T01:07:01;15.00;99.90
52517;DHT22;59374;53.210;5.726;2022-08-19T01:09:26;15.00;99.90
52517;DHT22;59374;53.210;5.726;2022-08-19T01:11:52;15.00;99.90
52517;DHT22;59374;53.210;5.726;2022-08-19T01:14:18;15.00;99.90
52517;DHT22;59374;53.210;5.726;2022-08-19T01:16:44;14.90;99.90
52517;DHT22;59374;53.210;5.726;2022-08-19T01:21:50;14.90;99.90
52517;DHT22;59374;53.210;5.726;2022-08-19T01:24:17;14.90;99.90
52517;DHT22;59374;53.210;5.726;2022-08-19T01:26:43;14.80;99.90
52517;DHT22;59374;53.210;5.726;2022-08-19T01:29:10;14.80;99.90
52517;DHT22;59374;53.210;5.726;2022-08-19T01:31:35;14.80;99.90
52517;DHT22;59374;53.210;5.726;2022-08-19T01:34:02;14.80;99.90
52517;DHT22;59374;53.210;5.726;2022-08-19T01:36:39;14.80;99.90
52517;DHT22;59374;53.210;5.726;2022-08-19T01:39:08;14.80;99.90
52517;DHT22;59374;53.210;5.726;2022-08-19T01:41:34;14.80;99.90
52517;DHT22;59374;53.210;5.726;2022-08-19T01:44:00;14.70;99.90
52517;DHT22;59374;53.210;5.726;2022-08-19T01:46:28;14.70;99.90
52517;DHT22;59374;53.210;5.726;2022-08-19T01:48:54;14.70;99.90
52517;DHT22;59374;53.210;5.726;2022-08-19T01:51:20;14.70;99.90
52517;DHT22;59374;53.210;5.726;2022-08-19T01:53:49;14.60;99.90
52517;DHT22;59374;53.210;5.726;2022-08-19T01:56:15;14.60;99.90
52517;DHT22;59374;53.210;5.726;2022-08-19T01:58:43;14.60;99.90
52517;DHT22;59374;53.210;5.726;2022-08-19T02:01:11;14.60;99.90
52517;DHT22;59374;53.210;5.726;2022-08-19T02:03:37;14.60;99.90
52517;DHT22;59374;53.210;5.726;2022-08-19T02:06:03;14.60;99.90
52517;DHT22;59374;53.210;5.726;2022-08-19T02:08:31;14.50;99.90
52517;DHT22;59374;53.210;5.726;2022-08-19T02:10:57;14.50;99.90
52517;DHT22;59374;53.210;5.726;2022-08-19T02:13:23;14.50;99.90
52517;DHT22;59374;53.210;5.726;2022-08-19T02:15:49;14.50;99.90
52517;DHT22;59374;53.210;5.726;2022-08-19T02:18:14;14.50;99.90
52517;DHT22;59374;53.210;5.726;2022-08-19T02:20:40;14.50;99.90
52517;DHT22;59374;53.210;5.726;2022-08-19T02:23:07;14.50;99.90
52517;DHT22;59374;53.210;5.726;2022-08-19T02:25:32;14.40;99.90
52517;DHT22;59374;53.210;5.726;2022-08-19T02:27:58;14.40;99.90
52517;DHT22;59374;53.210;5.726;2022-08-19T02:30:25;14.40;99.90
52517;DHT22;59374;53.210;5.726;2022-08-19T02:32:51;14.40;99.90
52517;DHT22;59374;53.210;5.726;2022-08-19T02:35:17;14.40;99.90
52517;DHT22;59374;53.210;5.726;2022-08-19T02:37:43;14.40;99.90
52517;DHT22;59374;53.210;5.726;2022-08-19T02:40:28;14.40;99.90
52517;DHT22;59374;53.210;5.726;2022-08-19T02:42:54;14.40;99.90
52517;DHT22;59374;53.210;5.726;2022-08-19T02:45:19;14.40;99.90
52517;DHT22;59374;53.210;5.726;2022-08-19T02:47:45;14.40;99.90
52517;DHT22;59374;53.210;5.726;2022-08-19T02:50:11;14.40;99.90
52517;DHT22;59374;53.210;5.726;2022-08-19T02:52:37;14.40;99.90
52517;DHT22;59374;53.210;5.726;2022-08-19T02:55:03;14.40;99.90
52517;DHT22;59374;53.210;5.726;2022-08-19T02:57:29;14.30;99.90
52517;DHT22;59374;53.210;5.726;2022-08-19T02:59:56;14.30;99.90
52517;DHT22;59374;53.210;5.726;2022-08-19T03:02:22;14.30;99.90
52517;DHT22;59374;53.210;5.726;2022-08-19T03:04:47;14.30;99.90
52517;DHT22;59374;53.210;5.726;2022-08-19T03:07:13;14.30;99.90
52517;DHT22;59374;53.210;5.726;2022-08-19T03:09:41;14.30;99.90
52517;DHT22;59374;53.210;5.726;2022-08-19T03:12:07;14.40;99.90
52517;DHT22;59374;53.210;5.726;2022-08-19T03:14:33;14.40;99.90
52517;DHT22;59374;53.210;5.726;2022-08-19T03:16:59;14.30;99.90
52517;DHT22;59374;53.210;5.726;2022-08-19T03:19:24;14.30;99.90
52517;DHT22;59374;53.210;5.726;2022-08-19T03:21:50;14.30;99.90
52517;DHT22;59374;53.210;5.726;2022-08-19T03:24:16;14.30;99.90
52517;DHT22;59374;53.210;5.726;2022-08-19T03:26:47;14.30;99.90
52517;DHT22;59374;53.210;5.726;2022-08-19T03:29:13;14.30;99.90
52517;DHT22;59374;53.210;5.726;2022-08-19T03:31:40;14.30;99.90
52517;DHT22;59374;53.210;5.726;2022-08-19T03:34:06;14.30;99.90
52517;DHT22;59374;53.210;5.726;2022-08-19T03:36:32;14.30;99.90
52517;DHT22;59374;53.210;5.726;2022-08-19T03:38:58;14.30;99.90
52517;DHT22;59374;53.210;5.726;2022-08-19T03:41:25;14.30;99.90
52517;DHT22;59374;53.210;5.726;2022-08-19T03:43:52;14.30;99.90
52517;DHT22;59374;53.210;5.726;2022-08-19T03:46:18;14.30;99.90
52517;DHT22;59374;53.210;5.726;2022-08-19T03:48:47;14.30;99.90
52517;DHT22;59374;53.210;5.726;2022-08-19T03:51:17;14.30;99.90
52517;DHT22;59374;53.210;5.726;2022-08-19T03:53:44;14.30;99.90
52517;DHT22;59374;53.210;5.726;2022-08-19T03:56:09;14.30;99.90
52517;DHT22;59374;53.210;5.726;2022-08-19T03:58:35;14.30;99.90
52517;DHT22;59374;53.210;5.726;2022-08-19T04:01:06;14.30;99.90
52517;DHT22;59374;53.210;5.726;2022-08-19T04:03:32;14.20;99.90
52517;DHT22;59374;53.210;5.726;2022-08-19T04:05:57;14.30;99.90
52517;DHT22;59374;53.210;5.726;2022-08-19T04:08:23;14.20;99.90
52517;DHT22;59374;53.210;5.726;2022-08-19T04:10:49;14.20;99.90
52517;DHT22;59374;53.210;5.726;2022-08-19T04:13:15;14.20;99.90
52517;DHT22;59374;53.210;5.726;2022-08-19T04:15:42;14.20;99.90
52517;DHT22;59374;53.210;5.726;2022-08-19T04:18:08;14.20;99.90
52517;DHT22;59374;53.210;5.726;2022-08-19T04:20:42;14.20;99.90
52517;DHT22;59374;53.210;5.726;2022-08-19T04:23:08;14.20;99.90
52517;DHT22;59374;53.210;5.726;2022-08-19T04:25:35;14.30;99.90
52517;DHT22;59374;53.210;5.726;2022-08-19T04:28:01;14.30;99.90
52517;DHT22;59374;53.210;5.726;2022-08-19T04:30:27;14.30;99.90
52517;DHT22;59374;53.210;5.726;2022-08-19T04:32:53;14.30;99.90
52517;DHT22;59374;53.210;5.726;2022-08-19T04:35:18;14.30;99.90
52517;DHT22;59374;53.210;5.726;2022-08-19T04:37:44;14.40;99.90
52517;DHT22;59374;53.210;5.726;2022-08-19T04:40:09;14.40;99.90
52517;DHT22;59374;53.210;5.726;2022-08-19T04:42:53;14.40;99.90
52517;DHT22;59374;53.210;5.726;2022-08-19T04:45:19;14.40;99.90
52517;DHT22;59374;53.210;5.726;2022-08-19T04:47:45;14.50;99.90
52517;DHT22;59374;53.210;5.726;2022-08-19T04:50:11;14.50;99.90
52517;DHT22;59374;53.210;5.726;2022-08-19T04:52:37;14.60;99.90
52517;DHT22;59374;53.210;5.726;2022-08-19T04:55:09;14.60;99.90
52517;DHT22;59374;53.210;5.726;2022-08-19T04:57:34;14.60;99.90
52517;DHT22;59374;53.210;5.726;2022-08-19T05:00:00;14.70;99.90
52517;DHT22;59374;53.210;5.726;2022-08-19T05:02:27;14.70;99.90
52517;DHT22;59374;53.210;5.726;2022-08-19T05:04:58;14.80;99.90
52517;DHT22;59374;53.210;5.726;2022-08-19T05:07:26;14.80;99.90
52517;DHT22;59374;53.210;5.726;2022-08-19T05:09:52;14.80;99.90
52517;DHT22;59374;53.210;5.726;2022-08-19T05:12:18;14.90;99.90
52517;DHT22;59374;53.210;5.726;2022-08-19T05:14:45;14.90;99.90
52517;DHT22;59374;53.210;5.726;2022-08-19T05:17:13;14.90;99.90
52517;DHT22;59374;53.210;5.726;2022-08-19T05:19:39;14.90;99.90
52517;DHT22;59374;53.210;5.726;2022-08-19T05:22:23;14.90;99.90
52517;DHT22;59374;53.210;5.726;2022-08-19T05:25:02;15.00;99.90
52517;DHT22;59374;53.210;5.726;2022-08-19T05:27:27;15.00;99.90
52517;DHT22;59374;53.210;5.726;2022-08-19T05:29:53;15.10;99.90
52517;DHT22;59374;53.210;5.726;2022-08-19T05:32:19;15.10;99.90
52517;DHT22;59374;53.210;5.726;2022-08-19T05:34:44;15.20;99.90
52517;DHT22;59374;53.210;5.726;2022-08-19T05:37:10;15.20;99.90
52517;DHT22;59374;53.210;5.726;2022-08-19T05:39:36;15.30;99.90
52517;DHT22;59374;53.210;5.726;2022-08-19T05:42:03;15.30;99.90
52517;DHT22;59374;53.210;5.726;2022-08-19T05:44:31;15.40;99.90
52517;DHT22;59374;53.210;5.726;2022-08-19T05:47:00;15.40;99.90
52517;DHT22;59374;53.210;5.726;2022-08-19T05:49:27;15.50;99.90
52517;DHT22;59374;53.210;5.726;2022-08-19T05:51:53;15.50;99.90
52517;DHT22;59374;53.210;5.726;2022-08-19T05:54:20;15.60;99.90
52517;DHT22;59374;53.210;5.726;2022-08-19T05:56:45;15.70;99.90
52517;DHT22;59374;53.210;5.726;2022-08-19T05:59:13;15.80;99.90
52517;DHT22;59374;53.210;5.726;2022-08-19T06:01:40;15.90;99.90
52517;DHT22;59374;53.210;5.726;2022-08-19T06:04:06;15.90;99.90
52517;DHT22;59374;53.210;5.726;2022-08-19T06:06:31;16.00;99.90
52517;DHT22;59374;53.210;5.726;2022-08-19T06:09:02;16.10;99.90
52517;DHT22;59374;53.210;5.726;2022-08-19T06:11:37;16.20;99.90
52517;DHT22;59374;53.210;5.726;2022-08-19T06:14:05;16.30;99.90
52517;DHT22;59374;53.210;5.726;2022-08-19T06:16:33;16.40;99.90
52517;DHT22;59374;53.210;5.726;2022-08-19T06:19:01;16.40;99.90
52517;DHT22;59374;53.210;5.726;2022-08-19T06:21:27;16.60;99.90
52517;DHT22;59374;53.210;5.726;2022-08-19T06:23:54;16.60;99.90
52517;DHT22;59374;53.210;5.726;2022-08-19T06:26:20;16.70;99.90
52517;DHT22;59374;53.210;5.726;2022-08-19T06:28:47;16.80;99.90
52517;DHT22;59374;53.210;5.726;2022-08-19T06:31:17;16.90;99.90
52517;DHT22;59374;53.210;5.726;2022-08-19T06:33:44;17.00;99.90
52517;DHT22;59374;53.210;5.726;2022-08-19T06:36:44;17.10;99.90
52517;DHT22;59374;53.210;5.726;2022-08-19T06:39:05;17.20;99.90
52517;DHT22;59374;53.210;5.726;2022-08-19T06:41:33;17.30;99.90
52517;DHT22;59374;53.210;5.726;2022-08-19T06:43:59;17.30;99.90
52517;DHT22;59374;53.210;5.726;2022-08-19T06:46:25;17.50;99.90
52517;DHT22;59374;53.210;5.726;2022-08-19T06:48:51;17.60;99.90
52517;DHT22;59374;53.210;5.726;2022-08-19T06:51:18;17.60;99.90
52517;DHT22;59374;53.210;5.726;2022-08-19T06:53:48;17.80;99.90
52517;DHT22;59374;53.210;5.726;2022-08-19T06:56:14;17.90;99.90
52517;DHT22;59374;53.210;5.726;2022-08-19T06:58:40;18.00;99.90
52517;DHT22;59374;53.210;5.726;2022-08-19T07:01:06;18.10;99.90
52517;DHT22;59374;53.210;5.726;2022-08-19T07:03:33;18.20;99.90
52517;DHT22;59374;53.210;5.726;2022-08-19T07:06:06;18.30;99.90
52517;DHT22;59374;53.210;5.726;2022-08-19T07:08:33;18.40;99.90
52517;DHT22;59374;53.210;5.726;2022-08-19T07:10:59;18.50;99.90
52517;DHT22;59374;53.210;5.726;2022-08-19T07:13:24;18.60;99.90
52517;DHT22;59374;53.210;5.726;2022-08-19T07:15:50;18.80;99.90
52517;DHT22;59374;53.210;5.726;2022-08-19T07:18:19;18.80;99.90
52517;DHT22;59374;53.210;5.726;2022-08-19T07:20:45;19.00;99.90
52517;DHT22;59374;53.210;5.726;2022-08-19T07:23:11;19.10;99.90
52517;DHT22;59374;53.210;5.726;2022-08-19T07:25:37;19.20;99.90
52517;DHT22;59374;53.210;5.726;2022-08-19T07:28:03;19.30;99.90
52517;DHT22;59374;53.210;5.726;2022-08-19T07:30:29;19.40;99.90
52517;DHT22;59374;53.210;5.726;2022-08-19T07:32:54;19.50;99.90
52517;DHT22;59374;53.210;5.726;2022-08-19T07:35:21;19.60;99.90
52517;DHT22;59374;53.210;5.726;2022-08-19T07:37:47;19.80;99.90
52517;DHT22;59374;53.210;5.726;2022-08-19T07:40:13;20.00;99.90
52517;DHT22;59374;53.210;5.726;2022-08-19T07:42:38;20.10;99.90
52517;DHT22;59374;53.210;5.726;2022-08-19T07:45:05;20.20;99.90
52517;DHT22;59374;53.210;5.726;2022-08-19T07:47:31;20.30;99.90
52517;DHT22;59374;53.210;5.726;2022-08-19T07:49:56;20.50;99.90
52517;DHT22;59374;53.210;5.726;2022-08-19T07:52:22;20.50;99.90
52517;DHT22;59374;53.210;5.726;2022-08-19T07:54:48;20.50;99.90
52517;DHT22;59374;53.210;5.726;2022-08-19T07:57:15;20.60;99.90
52517;DHT22;59374;53.210;5.726;2022-08-19T07:59:40;20.70;99.90
52517;DHT22;59374;53.210;5.726;2022-08-19T08:02:06;20.80;99.90
52517;DHT22;59374;53.210;5.726;2022-08-19T08:04:32;20.90;99.90
52517;DHT22;59374;53.210;5.726;2022-08-19T08:07:17;21.00;99.90
52517;DHT22;59374;53.210;5.726;2022-08-19T08:10:01;21.10;99.90
52517;DHT22;59374;53.210;5.726;2022-08-19T08:12:28;21.20;99.90
52517;DHT22;59374;53.210;5.726;2022-08-19T08:14:57;21.30;99.90
52517;DHT22;59374;53.210;5.726;2022-08-19T08:17:24;21.40;99.90
52517;DHT22;59374;53.210;5.726;2022-08-19T08:19:50;21.50;99.90
52517;DHT22;59374;53.210;5.726;2022-08-19T08:22:19;21.50;99.90
52517;DHT22;59374;53.210;5.726;2022-08-19T08:25:07;21.60;99.90
52517;DHT22;59374;53.210;5.726;2022-08-19T08:27:35;21.70;99.90
52517;DHT22;59374;53.210;5.726;2022-08-19T08:30:01;21.80;99.90
52517;DHT22;59374;53.210;5.726;2022-08-19T08:32:27;21.90;99.90
52517;DHT22;59374;53.210;5.726;2022-08-19T08:34:53;22.10;99.90
52517;DHT22;59374;53.210;5.726;2022-08-19T08:37:19;22.40;99.90
52517;DHT22;59374;53.210;5.726;2022-08-19T08:39:44;22.60;99.90
52517;DHT22;59374;53.210;5.726;2022-08-19T08:42:16;22.80;99.90
52517;DHT22;59374;53.210;5.726;2022-08-19T08:44:49;22.70;99.90
52517;DHT22;59374;53.210;5.726;2022-08-19T08:47:17;22.70;99.90
52517;DHT22;59374;53.210;5.726;2022-08-19T08:49:45;22.60;99.90
52517;DHT22;59374;53.210;5.726;2022-08-19T08:52:15;22.60;99.90
52517;DHT22;59374;53.210;5.726;2022-08-19T08:54:43;22.70;99.90
52517;DHT22;59374;53.210;5.726;2022-08-19T08:57:11;22.80;99.90
52517;DHT22;59374;53.210;5.726;2022-08-19T08:59:39;22.80;99.90
52517;DHT22;59374;53.210;5.726;2022-08-19T09:02:06;22.90;99.90
52517;DHT22;59374;53.210;5.726;2022-08-19T09:04:33;23.00;99.90
52517;DHT22;59374;53.210;5.726;2022-08-19T09:09:42;23.20;99.90
52517;DHT22;59374;53.210;5.726;2022-08-19T09:15:14;23.30;99.90
52517;DHT22;59374;53.210;5.726;2022-08-19T09:17:41;23.50;99.90
52517;DHT22;59374;53.210;5.726;2022-08-19T09:22:36;23.50;99.90
52517;DHT22;59374;53.210;5.726;2022-08-19T09:25:02;23.50;99.90
52517;DHT22;59374;53.210;5.726;2022-08-19T09:27:28;23.50;99.90
52517;DHT22;59374;53.210;5.726;2022-08-19T09:29:54;23.60;99.90
52517;DHT22;59374;53.210;5.726;2022-08-19T09:32:20;23.70;99.90
52517;DHT22;59374;53.210;5.726;2022-08-19T09:34:46;23.80;99.90
52517;DHT22;59374;53.210;5.726;2022-08-19T09:37:11;23.90;99.90
52517;DHT22;59374;53.210;5.726;2022-08-19T09:39:37;23.90;99.90
52517;DHT22;59374;53.210;5.726;2022-08-19T09:42:03;23.90;99.90
52517;DHT22;59374;53.210;5.726;2022-08-19T09:44:30;23.70;99.90
52517;DHT22;59374;53.210;5.726;2022-08-19T09:46:55;23.60;99.90
52517;DHT22;59374;53.210;5.726;2022-08-19T09:49:21;23.50;99.90
52517;DHT22;59374;53.210;5.726;2022-08-19T09:51:51;23.50;99.90
52517;DHT22;59374;53.210;5.726;2022-08-19T09:54:17;23.50;99.90
52517;DHT22;59374;53.210;5.726;2022-08-19T09:56:43;23.50;99.90
52517;DHT22;59374;53.210;5.726;2022-08-19T09:59:09;23.60;99.90
52517;DHT22;59374;53.210;5.726;2022-08-19T10:01:37;23.70;99.90
52517;DHT22;59374;53.210;5.726;2022-08-19T10:04:02;23.90;99.90
52517;DHT22;59374;53.210;5.726;2022-08-19T10:06:33;24.10;99.90
52517;DHT22;59374;53.210;5.726;2022-08-19T10:08:59;24.50;99.90
52517;DHT22;59374;53.210;5.726;2022-08-19T10:11:25;24.80;99.90
52517;DHT22;59374;53.210;5.726;2022-08-19T10:13:51;25.20;99.90
52517;DHT22;59374;53.210;5.726;2022-08-19T10:16:18;25.50;99.90
52517;DHT22;59374;53.210;5.726;2022-08-19T10:18:48;25.90;99.90
52517;DHT22;59374;53.210;5.726;2022-08-19T10:21:15;26.20;99.90
52517;DHT22;59374;53.210;5.726;2022-08-19T10:23:42;26.20;99.90
52517;DHT22;59374;53.210;5.726;2022-08-19T10:26:14;26.30;99.90
52517;DHT22;59374;53.210;5.726;2022-08-19T10:28:40;26.00;99.90
52517;DHT22;59374;53.210;5.726;2022-08-19T10:31:07;26.10;99.90
52517;DHT22;59374;53.210;5.726;2022-08-19T10:33:33;26.20;99.90
52517;DHT22;59374;53.210;5.726;2022-08-19T10:36:00;26.40;99.90
52517;DHT22;59374;53.210;5.726;2022-08-19T10:38:26;26.60;99.90
52517;DHT22;59374;53.210;5.726;2022-08-19T10:40:51;26.50;99.90
52517;DHT22;59374;53.210;5.726;2022-08-19T10:43:18;26.60;99.90
52517;DHT22;59374;53.210;5.726;2022-08-19T10:45:48;26.70;99.90
52517;DHT22;59374;53.210;5.726;2022-08-19T10:48:13;26.70;99.90
52517;DHT22;59374;53.210;5.726;2022-08-19T10:50:39;26.80;99.90
52517;DHT22;59374;53.210;5.726;2022-08-19T10:53:23;26.60;99.90
52517;DHT22;59374;53.210;5.726;2022-08-19T10:55:50;26.50;99.90
52517;DHT22;59374;53.210;5.726;2022-08-19T10:58:35;26.50;99.90
52517;DHT22;59374;53.210;5.726;2022-08-19T11:01:00;26.50;99.90
52517;DHT22;59374;53.210;5.726;2022-08-19T11:03:26;26.60;99.90
52517;DHT22;59374;53.210;5.726;2022-08-19T11:05:59;26.50;99.90
52517;DHT22;59374;53.210;5.726;2022-08-19T11:08:25;26.30;99.90
52517;DHT22;59374;53.210;5.726;2022-08-19T11:10:52;26.20;99.90
52517;DHT22;59374;53.210;5.726;2022-08-19T11:13:20;26.30;99.90
52517;DHT22;59374;53.210;5.726;2022-08-19T11:15:46;26.50;99.90
52517;DHT22;59374;53.210;5.726;2022-08-19T11:18:12;26.60;99.90
52517;DHT22;59374;53.210;5.726;2022-08-19T11:20:38;26.50;99.90
52517;DHT22;59374;53.210;5.726;2022-08-19T11:23:03;26.50;99.90
52517;DHT22;59374;53.210;5.726;2022-08-19T11:25:29;26.40;99.90
52517;DHT22;59374;53.210;5.726;2022-08-19T11:27:54;26.50;99.90
52517;DHT22;59374;53.210;5.726;2022-08-19T11:30:20;26.40;99.90
52517;DHT22;59374;53.210;5.726;2022-08-19T11:32:46;26.40;99.90
52517;DHT22;59374;53.210;5.726;2022-08-19T11:35:13;26.20;99.90
52517;DHT22;59374;53.210;5.726;2022-08-19T11:37:38;26.30;99.90
52517;DHT22;59374;53.210;5.726;2022-08-19T11:40:05;26.40;99.90
52517;DHT22;59374;53.210;5.726;2022-08-19T11:42:31;26.40;99.90
52517;DHT22;59374;53.210;5.726;2022-08-19T11:45:15;26.60;99.90
52517;DHT22;59374;53.210;5.726;2022-08-19T11:47:41;26.80;99.90
52517;DHT22;59374;53.210;5.726;2022-08-19T11:50:06;26.80;99.90
52517;DHT22;59374;53.210;5.726;2022-08-19T11:52:32;26.90;99.90
52517;DHT22;59374;53.210;5.726;2022-08-19T11:54:58;27.00;99.90
52517;DHT22;59374;53.210;5.726;2022-08-19T11:57:23;27.00;99.90
52517;DHT22;59374;53.210;5.726;2022-08-19T11:59:50;26.90;99.90
52517;DHT22;59374;53.210;5.726;2022-08-19T12:02:16;26.80;99.90
52517;DHT22;59374;53.210;5.726;2022-08-19T12:04:41;26.60;99.90
52517;DHT22;59374;53.210;5.726;2022-08-19T12:07:07;26.50;99.90
52517;DHT22;59374;53.210;5.726;2022-08-19T12:09:32;26.40;99.90
52517;DHT22;59374;53.210;5.726;2022-08-19T12:11:59;26.30;99.90
52517;DHT22;59374;53.210;5.726;2022-08-19T12:14:26;26.40;99.90
52517;DHT22;59374;53.210;5.726;2022-08-19T12:16:53;26.70;99.90
52517;DHT22;59374;53.210;5.726;2022-08-19T12:19:19;26.70;99.90
52517;DHT22;59374;53.210;5.726;2022-08-19T12:21:46;26.80;99.90
52517;DHT22;59374;53.210;5.726;2022-08-19T12:24:11;27.10;99.90
52517;DHT22;59374;53.210;5.726;2022-08-19T12:26:37;26.90;99.90
52517;DHT22;59374;53.210;5.726;2022-08-19T12:29:03;26.80;99.90
52517;DHT22;59374;53.210;5.726;2022-08-19T12:31:29;26.60;99.90
52517;DHT22;59374;53.210;5.726;2022-08-19T12:33:55;26.50;99.90
52517;DHT22;59374;53.210;5.726;2022-08-19T12:36:20;26.60;99.90
52517;DHT22;59374;53.210;5.726;2022-08-19T12:38:47;26.60;99.90
52517;DHT22;59374;53.210;5.726;2022-08-19T12:41:13;26.40;99.90
52517;DHT22;59374;53.210;5.726;2022-08-19T12:43:40;26.20;99.90
52517;DHT22;59374;53.210;5.726;2022-08-19T12:46:07;26.10;99.90
52517;DHT22;59374;53.210;5.726;2022-08-19T12:48:33;26.20;99.90
52517;DHT22;59374;53.210;5.726;2022-08-19T12:50:59;26.10;99.90
52517;DHT22;59374;53.210;5.726;2022-08-19T12:53:24;26.10;99.90
52517;DHT22;59374;53.210;5.726;2022-08-19T12:55:57;26.00;99.90
52517;DHT22;59374;53.210;5.726;2022-08-19T12:58:22;26.30;99.90
52517;DHT22;59374;53.210;5.726;2022-08-19T13:00:48;26.60;99.90
52517;DHT22;59374;53.210;5.726;2022-08-19T13:03:14;26.90;99.90
52517;DHT22;59374;53.210;5.726;2022-08-19T13:05:40;27.00;99.90
52517;DHT22;59374;53.210;5.726;2022-08-19T13:08:05;27.00;99.90
52517;DHT22;59374;53.210;5.726;2022-08-19T13:10:32;27.10;99.90
52517;DHT22;59374;53.210;5.726;2022-08-19T13:13:00;27.30;99.90
52517;DHT22;59374;53.210;5.726;2022-08-19T13:15:27;27.00;99.90
52517;DHT22;59374;53.210;5.726;2022-08-19T13:17:54;27.20;99.90
52517;DHT22;59374;53.210;5.726;2022-08-19T13:20:21;27.60;99.90
52517;DHT22;59374;53.210;5.726;2022-08-19T13:22:47;28.10;99.90
52517;DHT22;59374;53.210;5.726;2022-08-19T13:25:14;28.40;99.90
52517;DHT22;59374;53.210;5.726;2022-08-19T13:27:41;28.60;99.90
52517;DHT22;59374;53.210;5.726;2022-08-19T13:30:08;28.00;99.90
52517;DHT22;59374;53.210;5.726;2022-08-19T13:32:53;27.60;99.90
52517;DHT22;59374;53.210;5.726;2022-08-19T13:38:08;27.60;99.90
52517;DHT22;59374;53.210;5.726;2022-08-19T13:40:34;27.90;99.90
52517;DHT22;59374;53.210;5.726;2022-08-19T13:43:00;28.30;99.90
52517;DHT22;59374;53.210;5.726;2022-08-19T13:45:26;28.60;99.90
52517;DHT22;59374;53.210;5.726;2022-08-19T13:47:53;28.50;99.90
52517;DHT22;59374;53.210;5.726;2022-08-19T13:50:21;28.60;99.90
52517;DHT22;59374;53.210;5.726;2022-08-19T13:52:46;28.50;99.90
52517;DHT22;59374;53.210;5.726;2022-08-19T13:55:13;28.70;99.90
52517;DHT22;59374;53.210;5.726;2022-08-19T13:57:39;28.80;99.90
52517;DHT22;59374;53.210;5.726;2022-08-19T14:00:09;29.00;99.90
52517;DHT22;59374;53.210;5.726;2022-08-19T14:02:38;29.00;99.90
52517;DHT22;59374;53.210;5.726;2022-08-19T14:05:05;29.10;99.90
52517;DHT22;59374;53.210;5.726;2022-08-19T14:07:31;29.30;99.90
52517;DHT22;59374;53.210;5.726;2022-08-19T14:09:57;29.30;99.90
52517;DHT22;59374;53.210;5.726;2022-08-19T14:12:22;29.00;99.90
52517;DHT22;59374;53.210;5.726;2022-08-19T14:14:48;29.30;99.90
52517;DHT22;59374;53.210;5.726;2022-08-19T14:17:14;29.60;99.90
52517;DHT22;59374;53.210;5.726;2022-08-19T14:19:40;30.00;99.90
52517;DHT22;59374;53.210;5.726;2022-08-19T14:22:05;30.30;99.90
52517;DHT22;59374;53.210;5.726;2022-08-19T14:24:31;30.40;99.90
52517;DHT22;59374;53.210;5.726;2022-08-19T14:26:57;30.10;99.70
52517;DHT22;59374;53.210;5.726;2022-08-19T14:29:23;29.70;99.90
52517;DHT22;59374;53.210;5.726;2022-08-19T14:31:48;29.80;99.90
52517;DHT22;59374;53.210;5.726;2022-08-19T14:34:14;29.70;99.70
52517;DHT22;59374;53.210;5.726;2022-08-19T14:36:39;29.00;99.90
52517;DHT22;59374;53.210;5.726;2022-08-19T14:39:07;28.40;99.90
52517;DHT22;59374;53.210;5.726;2022-08-19T14:41:32;28.10;99.90
52517;DHT22;59374;53.210;5.726;2022-08-19T14:43:58;27.80;99.90
52517;DHT22;59374;53.210;5.726;2022-08-19T14:46:25;27.50;99.90
52517;DHT22;59374;53.210;5.726;2022-08-19T14:48:51;27.30;99.90
52517;DHT22;59374;53.210;5.726;2022-08-19T14:51:17;27.50;99.90
52517;DHT22;59374;53.210;5.726;2022-08-19T14:53:43;28.00;99.90
52517;DHT22;59374;53.210;5.726;2022-08-19T14:56:10;28.90;99.90
52517;DHT22;59374;53.210;5.726;2022-08-19T14:58:35;30.20;99.90
52517;DHT22;59374;53.210;5.726;2022-08-19T15:01:01;31.30;99.90
52517;DHT22;59374;53.210;5.726;2022-08-19T15:03:27;31.50;99.90
52517;DHT22;59374;53.210;5.726;2022-08-19T15:05:53;31.80;98.90
52517;DHT22;59374;53.210;5.726;2022-08-19T15:08:19;31.30;98.90
52517;DHT22;59374;53.210;5.726;2022-08-19T15:10:46;31.10;98.60
52517;DHT22;59374;53.210;5.726;2022-08-19T15:13:13;30.70;99.40
52517;DHT22;59374;53.210;5.726;2022-08-19T15:15:38;30.10;99.30
52517;DHT22;59374;53.210;5.726;2022-08-19T15:18:04;29.80;99.90
52517;DHT22;59374;53.210;5.726;2022-08-19T15:20:30;29.30;99.90
52517;DHT22;59374;53.210;5.726;2022-08-19T15:22:56;28.80;99.90
52517;DHT22;59374;53.210;5.726;2022-08-19T15:25:23;28.20;99.90
52517;DHT22;59374;53.210;5.726;2022-08-19T15:27:49;27.90;99.90
52517;DHT22;59374;53.210;5.726;2022-08-19T15:30:18;28.40;99.90
52517;DHT22;59374;53.210;5.726;2022-08-19T15:32:44;27.90;99.90
52517;DHT22;59374;53.210;5.726;2022-08-19T15:35:09;27.40;99.90
52517;DHT22;59374;53.210;5.726;2022-08-19T15:37:35;27.80;99.90
52517;DHT22;59374;53.210;5.726;2022-08-19T15:40:01;28.80;99.90
52517;DHT22;59374;53.210;5.726;2022-08-19T15:42:26;29.50;99.90